Roubaix, South Dakota
Current Conditions -  °F | °C
As of 12:35 PM on Thursday 23 Oct 2014 (Local Time) from KSPF Reporting Station
Clear Clear  
Wind Chill: 63°   Ceiling: Unl
Heat Index: 63°   Visibility: 10mi
Dew Point: 27°   Wind: 0mph
Humidity: 26%   Direction: NA
Pressure: 29.94"   Gusts: NA
Location:  44.2665°N, 103.672°W
Report Text: KSPF 231835Z AUTO 00000KT 10SM CLR 17/M03 A2994 RMK AO2
Loading
Personal Weather Stations






























Interactive Weather Map
Tropical Storm Tracking
New forecast layout! Learn more

10-Day Weather Forecast

Advertisements
Track Severe Weather on mobile